EDT,Max TemperatureF,Mean TemperatureF,Min TemperatureF,Max Dew PointF,MeanDew PointF,Min DewpointF,Max Humidity, Mean Humidity, Min Humidity, Max Sea Level PressureIn, Mean Sea Level PressureIn, Min Sea Level PressureIn, Max VisibilityMiles, Mean VisibilityMiles, Min VisibilityMiles, Max Wind SpeedMPH, Mean Wind SpeedMPH, Max Gust SpeedMPH,PrecipitationIn, CloudCover, Events, WindDirDegrees
2013-9-1,91,82,72,75,71,69,93,73,52,29.99,29.95,29.89,10,7,2,14,4,17,T,2,,226
2013-9-2,91,81,71,74,71,69,93,73,52,30.01,29.96,29.91,10,9,2,15,5,18,0.06,1,Rain,221
2013-9-3,88,81,73,75,73,70,94,79,63,30.04,29.98,29.93,10,8,2,18,3,30,0.22,3,Rain-Thunderstorm,255
2013-9-4,94,83,72,76,72,68,94,71,47,30.10,30.04,29.99,10,9,3,15,2,21,0.05,3,Rain-Thunderstorm,220
2013-9-5,93,82,71,72,71,66,93,69,44,30.12,30.07,30.01,10,10,9,10,2,15,0.00,1,,186
2013-9-6,94,83,71,73,70,64,93,70,46,30.06,30.03,29.96,10,9,4,32,3,40,0.21,3,Rain-Thunderstorm,8
2013-9-7,91,80,69,72,68,66,97,74,50,30.04,30.00,29.95,10,9,7,13,4,17,T,1,,34
2013-9-8,90,79,68,72,66,62,97,69,41,30.00,29.96,29.91,10,8,3,13,3,20,0.00,0,,73
2013-9-9,91,79,66,70,66,61,93,67,40,30.07,30.02,29.97,10,9,5,14,4,18,0.00,1,,85
2013-9-10,90,78,66,72,67,63,93,67,41,30.14,30.10,30.04,10,10,7,18,5,26,0.00,2,,65
2013-9-11,90,81,71,72,70,67,93,72,50,30.12,30.08,30.03,10,10,10,16,6,21,T,0,,55
2013-9-12,90,80,69,73,70,68,97,74,50,30.05,29.99,29.90,10,9,5,12,3,28,0.00,2,,55
2013-9-13,92,81,69,73,68,64,97,69,41,29.93,29.87,29.80,10,10,10,10,3,14,0.00,0,,285
2013-9-14,92,80,68,72,69,66,97,71,44,30.00,29.90,29.84,10,10,6,13,3,18,0.00,0,,193
2013-9-15,94,83,71,76,72,69,94,72,49,30.11,30.04,29.99,10,8,1,16,3,20,0.17,2,Rain,91
2013-9-16,93,83,73,75,72,66,100,71,41,30.11,30.07,29.98,10,7,0,13,4,17,0.00,3,Fog,86
2013-9-17,92,81,70,74,71,68,93,71,49,30.11,30.06,30.00,10,9,2,20,6,25,0.00,2,,55
2013-9-18,87,79,71,72,70,66,93,76,59,30.10,30.06,30.03,10,10,8,24,10,31,0.00,4,,49
2013-9-19,90,80,69,72,69,66,97,74,50,30.09,30.05,30.02,10,10,9,18,5,23,0.01,4,,46
2013-9-20,90,78,65,69,67,63,100,73,46,30.06,30.01,29.93,10,10,9,13,3,17,0.00,1,,85
2013-9-21,89,78,66,70,67,65,93,70,46,29.96,29.86,29.77,10,10,9,12,3,14,0.00,1,,196
2013-9-22,82,78,73,75,72,70,94,84,74,29.87,29.80,29.76,10,8,1,16,4,22,0.41,5,Rain,243
2013-9-23,82,78,73,75,72,71,94,87,79,29.97,29.92,29.85,10,8,2,17,4,22,0.36,7,Rain,102
2013-9-24,84,79,74,75,73,72,100,90,79,29.97,29.89,29.84,10,7,0,10,2,,1.54,7,Fog-Rain-Thunderstorm,117
2013-9-25,84,78,71,75,72,68,100,85,69,29.86,29.81,29.76,10,9,2,17,5,23,0.03,6,Rain,240
2013-9-26,87,79,70,74,71,66,100,80,59,29.93,29.82,29.76,10,7,0,16,6,22,T,6,Fog-Rain,338
2013-9-27,86,77,67,68,66,64,93,72,51,30.02,29.96,29.90,10,10,8,21,8,25,0.00,3,,17
2013-9-28,79,74,68,70,68,63,97,83,69,30.08,30.04,29.98,10,8,1,17,8,22,0.14,7,Rain,29
2013-9-29,86,77,67,69,66,64,93,76,58,30.04,30.00,29.94,10,10,10,14,6,18,0.00,4,,41
2013-9-30,87,77,67,70,67,65,93,74,55,30.04,29.99,29.95,10,10,5,13,4,16,T,5,Rain,61